createdAt,value
2022-09-15T14:05:29.116Z,20.95
2022-09-15T14:08:03.581Z,20.94
2022-09-15T14:10:35.914Z,20.81
2022-09-15T14:13:02.674Z,20.85
2022-09-15T14:15:29.373Z,20.85
2022-09-15T14:17:56.593Z,20.79
2022-09-15T14:20:31.673Z,20.97
2022-09-15T14:22:59.453Z,20.88
2022-09-15T14:25:28.809Z,21.05
2022-09-15T14:27:55.929Z,21.15
2022-09-15T14:30:31.051Z,21.47
2022-09-15T14:33:01.144Z,21.45
2022-09-15T14:35:36.272Z,21.33
2022-09-15T14:38:03.101Z,21.35
2022-09-15T14:40:38.040Z,21.01
2022-09-15T14:43:23.181Z,20.83
2022-09-15T14:45:55.375Z,20.89
2022-09-15T14:48:27.427Z,20.97
2022-09-15T14:51:02.286Z,20.86
2022-09-15T14:53:31.857Z,20.87
2022-09-15T14:56:08.306Z,20.77
2022-09-15T14:58:46.397Z,20.67
2022-09-15T15:01:24.645Z,20.65
2022-09-15T15:04:20.611Z,20.59
2022-09-15T15:07:02.139Z,20.52
2022-09-15T15:09:33.758Z,20.58
2022-09-15T15:12:13.666Z,20.52
2022-09-15T15:14:41.811Z,20.54
2022-09-15T15:17:27.021Z,20.40
2022-09-15T15:20:15.359Z,20.32
2022-09-15T15:22:43.595Z,20.40
2022-09-15T15:25:29.341Z,20.28
2022-09-15T15:27:57.552Z,20.37
2022-09-15T15:30:26.010Z,20.33
2022-09-15T15:32:53.459Z,20.30
2022-09-15T15:35:20.532Z,20.32
2022-09-15T15:37:47.277Z,20.31
2022-09-15T15:40:17.871Z,20.16
2022-09-15T15:43:01.473Z,20.03
2022-09-15T15:45:32.020Z,19.97
2022-09-15T15:48:00.359Z,19.80
2022-09-15T15:50:27.634Z,19.65
2022-09-15T15:52:55.266Z,19.50
2022-09-15T15:55:24.639Z,19.55
2022-09-15T15:57:53.189Z,19.44
2022-09-15T16:00:24.489Z,19.42
2022-09-15T16:02:52.425Z,19.43
2022-09-15T16:05:21.473Z,19.37
2022-09-15T16:07:50.544Z,19.33
2022-09-15T16:10:20.263Z,19.28
2022-09-15T16:12:47.422Z,19.28
2022-09-15T16:15:17.341Z,19.23
2022-09-15T16:17:46.696Z,19.16
2022-09-15T16:20:15.267Z,19.09
2022-09-15T16:22:42.124Z,19.09
2022-09-15T16:25:38.215Z,19.06
2022-09-15T16:28:04.870Z,19.00
2022-09-15T16:30:32.333Z,18.92
2022-09-15T16:32:59.027Z,18.91
2022-09-15T16:35:39.029Z,18.88
2022-09-15T16:38:06.632Z,18.83
2022-09-15T16:40:33.911Z,18.85
2022-09-15T16:43:00.196Z,18.80
2022-09-15T16:45:38.252Z,18.76
2022-09-15T16:48:08.176Z,18.72
2022-09-15T16:50:34.867Z,18.63
2022-09-15T16:53:01.418Z,18.60
2022-09-15T16:55:41.991Z,18.56
2022-09-15T16:58:08.186Z,18.46
2022-09-15T17:00:36.205Z,18.40
2022-09-15T17:03:03.829Z,18.34
2022-09-15T17:05:39.998Z,18.28
2022-09-15T17:08:08.751Z,18.24
2022-09-15T17:10:35.577Z,18.24
2022-09-15T17:13:02.407Z,18.25
2022-09-15T17:15:34.954Z,18.17
2022-09-15T17:18:01.989Z,18.10
2022-09-15T17:20:28.598Z,17.98
2022-09-15T17:22:57.140Z,17.94
2022-09-15T17:25:26.295Z,17.87
2022-09-15T17:27:53.510Z,17.75
2022-09-15T17:30:25.039Z,17.71
2022-09-15T17:32:51.506Z,17.63
2022-09-15T17:35:22.322Z,17.62
2022-09-15T17:37:49.322Z,17.55
2022-09-15T17:40:17.154Z,17.46
2022-09-15T17:42:44.372Z,17.44
2022-09-15T17:45:27.656Z,17.43
2022-09-15T17:47:53.865Z,17.35
2022-09-15T17:50:22.468Z,17.30
2022-09-15T17:52:49.646Z,17.23
2022-09-15T17:55:15.912Z,17.20
2022-09-15T17:57:42.365Z,17.12
2022-09-15T18:00:11.104Z,17.04
2022-09-15T18:02:42.488Z,17.01
2022-09-15T18:05:19.919Z,16.99
2022-09-15T18:07:46.618Z,16.89
2022-09-15T18:10:15.296Z,16.92
2022-09-15T18:12:44.162Z,16.82
2022-09-15T18:15:18.093Z,16.76
2022-09-15T18:17:45.647Z,16.74
2022-09-15T18:20:14.416Z,16.73
2022-09-15T18:22:41.934Z,16.68
2022-09-15T18:25:16.152Z,16.65
2022-09-15T18:27:43.040Z,16.68
2022-09-15T18:30:10.859Z,16.63
2022-09-15T18:32:38.864Z,16.53
2022-09-15T18:35:06.203Z,16.51
2022-09-15T18:37:32.508Z,16.55
2022-09-15T18:39:58.874Z,16.54
2022-09-15T18:42:28.480Z,16.53
2022-09-15T18:44:57.580Z,16.48
2022-09-15T18:47:24.043Z,16.54
2022-09-15T18:49:50.679Z,16.61
2022-09-15T18:52:17.207Z,16.67
2022-09-15T18:54:43.963Z,16.71
2022-09-15T18:57:10.776Z,16.69
2022-09-15T18:59:38.562Z,16.72
2022-09-15T19:02:05.757Z,16.79
2022-09-15T19:04:36.114Z,16.79
2022-09-15T19:07:04.965Z,16.79
2022-09-15T19:09:31.393Z,16.79
2022-09-15T19:11:57.991Z,16.80
2022-09-15T19:14:27.061Z,16.85
2022-09-15T19:16:58.187Z,16.82
2022-09-15T19:19:25.602Z,16.88
2022-09-15T19:21:51.973Z,16.86
2022-09-15T19:24:18.381Z,16.89
2022-09-15T19:26:46.243Z,16.92
2022-09-15T19:29:14.827Z,16.92
2022-09-15T19:31:42.229Z,16.87
2022-09-15T19:34:09.712Z,16.94
2022-09-15T19:36:36.336Z,16.93
2022-09-15T19:39:03.274Z,17.00
2022-09-15T19:41:30.485Z,17.00
2022-09-15T19:43:56.942Z,17.03
2022-09-15T19:46:24.611Z,16.97
2022-09-15T19:48:52.709Z,16.98
2022-09-15T19:51:19.875Z,16.98
2022-09-15T19:53:46.945Z,16.98
2022-09-15T19:56:21.608Z,16.96
2022-09-15T19:58:48.964Z,16.94
2022-09-15T20:01:15.472Z,16.99
2022-09-15T20:03:43.506Z,16.95
2022-09-15T20:06:10.006Z,16.88
2022-09-15T20:08:37.585Z,16.84
2022-09-15T20:11:08.451Z,16.86
2022-09-15T20:13:38.672Z,16.86
2022-09-15T20:16:05.449Z,16.90
2022-09-15T20:18:32.871Z,16.94
2022-09-15T20:21:02.161Z,16.91
2022-09-15T20:23:28.559Z,16.92
2022-09-15T20:26:00.407Z,16.89
2022-09-15T20:28:27.918Z,16.79
2022-09-15T20:31:18.710Z,16.84
2022-09-15T20:33:46.288Z,16.79
2022-09-15T20:36:18.967Z,16.80
2022-09-15T20:38:46.899Z,16.73
2022-09-15T20:41:15.082Z,16.59
2022-09-15T20:43:42.462Z,16.50
2022-09-15T20:46:12.091Z,16.42
2022-09-15T20:48:38.940Z,16.38
2022-09-15T20:51:17.208Z,16.27
2022-09-15T20:53:46.546Z,16.24
2022-09-15T20:56:15.072Z,16.22
2022-09-15T20:58:41.797Z,16.15
2022-09-15T21:01:17.725Z,16.11
2022-09-15T21:03:45.250Z,16.02
2022-09-15T21:06:17.701Z,15.98
2022-09-15T21:08:46.972Z,15.98
2022-09-15T21:11:15.179Z,15.94
2022-09-15T21:13:42.678Z,15.87
2022-09-15T21:16:13.414Z,15.84
2022-09-15T21:18:41.759Z,15.85
2022-09-15T21:21:12.351Z,15.82
2022-09-15T21:23:50.478Z,15.80
2022-09-15T21:26:18.879Z,15.76
2022-09-15T21:28:45.991Z,15.83
2022-09-15T21:31:17.130Z,15.87
2022-09-15T21:33:45.503Z,15.89
2022-09-15T21:36:19.002Z,15.93
2022-09-15T21:38:46.003Z,15.91
2022-09-15T21:41:15.834Z,15.92
2022-09-15T21:43:45.561Z,15.88
2022-09-15T21:46:14.758Z,15.83
2022-09-15T21:48:41.694Z,15.75
2022-09-15T21:51:11.091Z,15.73
2022-09-15T21:53:37.873Z,15.67
2022-09-15T21:56:08.325Z,15.63
2022-09-15T21:58:41.737Z,15.56
2022-09-15T22:01:14.223Z,15.50
2022-09-15T22:03:41.628Z,15.54
2022-09-15T22:06:11.857Z,15.44
2022-09-15T22:08:39.158Z,15.42
2022-09-15T22:11:06.951Z,15.41
2022-09-15T22:13:35.793Z,15.44
2022-09-15T22:16:06.256Z,15.37
2022-09-15T22:18:36.218Z,15.38
2022-09-15T22:21:10.795Z,15.33
2022-09-15T22:23:37.974Z,15.33
2022-09-15T22:26:07.047Z,15.25
2022-09-15T22:28:33.729Z,15.24
2022-09-15T22:31:02.070Z,15.12
2022-09-15T22:33:29.169Z,15.18
2022-09-15T22:35:58.675Z,15.14
2022-09-15T22:38:27.930Z,15.17
2022-09-15T22:40:54.618Z,15.16
2022-09-15T22:43:21.236Z,15.04
2022-09-15T22:45:47.836Z,14.99
2022-09-15T22:48:14.176Z,14.95
2022-09-15T22:50:43.386Z,14.92
2022-09-15T22:53:12.212Z,14.93
2022-09-15T22:55:39.011Z,14.89
2022-09-15T22:58:05.647Z,14.80
2022-09-15T23:00:32.287Z,14.78
2022-09-15T23:02:59.319Z,14.75
2022-09-15T23:05:25.588Z,14.74
2022-09-15T23:07:51.772Z,14.74
2022-09-15T23:10:18.118Z,14.70
2022-09-15T23:12:44.273Z,14.67
2022-09-15T23:15:11.015Z,14.66
2022-09-15T23:17:38.345Z,14.67
2022-09-15T23:20:05.041Z,14.62
2022-09-15T23:22:31.283Z,14.62
2022-09-15T23:24:57.630Z,14.60
2022-09-15T23:27:23.862Z,14.58
2022-09-15T23:29:50.025Z,14.55
2022-09-15T23:32:16.473Z,14.55
2022-09-15T23:34:42.859Z,14.50
2022-09-15T23:37:08.990Z,14.47
2022-09-15T23:39:35.316Z,14.46
2022-09-15T23:42:01.562Z,14.42
2022-09-15T23:44:27.744Z,14.44
2022-09-15T23:46:54.210Z,14.45
2022-09-15T23:49:20.451Z,14.37
2022-09-15T23:51:46.607Z,14.38
2022-09-15T23:54:13.031Z,14.36
2022-09-15T23:56:39.157Z,14.35
2022-09-15T23:59:05.264Z,14.32
